Time;durP1;ratioP1;P1;durP2;ratioP2;P2;SDS_P1;SDS_P2;PMS_P1;PMS_P2;Temp;Humidity;BMP_temperature;BMP_pressure;BME280_temperature;BME280_humidity;BME280_pressure;Samples;Min_cycle;Max_cycle;Signal;HPM_P1;HPM_P2
2024/03/18 00:00:15;;;;;;;10.33;8.73;;;10.90;99.90;;;;;;5032394;28;20778;-66
2024/03/18 00:02:42;;;;;;;9.90;8.30;;;10.70;99.90;;;;;;5028729;28;20468;-67
2024/03/18 00:05:12;;;;;;;9.40;7.90;;;10.70;99.90;;;;;;5032111;28;20448;-68
2024/03/18 00:07:38;;;;;;;9.67;8.67;;;10.70;99.90;;;;;;5029657;28;20443;-66
2024/03/18 00:10:11;;;;;;;11.40;9.00;;;10.70;99.90;;;;;;5032103;28;20985;-68
2024/03/18 00:12:41;;;;;;;11.63;9.47;;;10.60;99.90;;;;;;5030829;28;21104;-66
2024/03/18 00:15:09;;;;;;;10.30;8.70;;;10.50;99.90;;;;;;5031888;28;20503;-66
2024/03/18 00:17:35;;;;;;;12.10;8.80;;;10.60;99.90;;;;;;5030557;28;20437;-66
2024/03/18 00:20:07;;;;;;;11.00;9.07;;;10.70;99.90;;;;;;5031874;28;20421;-68
2024/03/18 00:22:36;;;;;;;13.13;9.70;;;10.70;99.90;;;;;;5031789;28;20432;-65
2024/03/18 00:25:03;;;;;;;12.07;9.30;;;10.70;99.90;;;;;;5031854;28;20427;-68
2024/03/18 00:27:29;;;;;;;9.67;8.77;;;10.70;99.90;;;;;;5031578;28;20433;-67
2024/03/18 00:29:55;;;;;;;9.37;8.37;;;10.70;99.90;;;;;;5030815;28;20471;-67
2024/03/18 00:32:20;;;;;;;13.70;9.60;;;10.60;99.90;;;;;;5031873;28;20424;-67
2024/03/18 00:34:46;;;;;;;10.97;8.90;;;10.60;99.90;;;;;;5031174;28;20182;-67
2024/03/18 00:37:12;;;;;;;10.23;9.00;;;10.60;99.90;;;;;;5032138;28;20190;-66
2024/03/18 00:39:38;;;;;;;11.17;8.13;;;10.60;99.90;;;;;;5028359;28;20221;-67
2024/03/18 00:42:04;;;;;;;11.60;9.10;;;10.60;99.90;;;;;;5031464;28;20934;-66
2024/03/18 00:44:29;;;;;;;11.60;9.00;;;10.60;99.90;;;;;;5031741;28;20195;-67
2024/03/18 00:46:55;;;;;;;11.90;9.87;;;10.60;99.90;;;;;;5029956;28;20202;-65
2024/03/18 00:49:22;;;;;;;12.90;9.63;;;10.60;99.90;;;;;;5031482;28;20486;-66
2024/03/18 00:51:48;;;;;;;12.00;9.73;;;10.60;99.90;;;;;;5030176;28;20218;-67
2024/03/18 00:54:14;;;;;;;12.70;10.00;;;10.50;99.90;;;;;;5032374;28;20493;-67
2024/03/18 00:56:40;;;;;;;11.00;8.80;;;10.60;99.90;;;;;;5032331;28;20865;-67
2024/03/18 00:59:06;;;;;;;13.37;9.30;;;10.50;99.90;;;;;;5034544;28;20464;-66
2024/03/18 01:01:33;;;;;;;10.20;8.53;;;10.60;99.90;;;;;;5035080;28;20431;-67
2024/03/18 01:04:03;;;;;;;9.80;8.70;;;10.50;99.90;;;;;;5033284;28;21191;-66
2024/03/18 01:06:28;;;;;;;12.43;9.50;;;10.60;99.90;;;;;;5035059;28;20524;-68
2024/03/18 01:08:54;;;;;;;13.50;10.27;;;10.50;99.90;;;;;;5034467;28;20528;-66
2024/03/18 01:11:21;;;;;;;12.93;10.17;;;10.50;99.90;;;;;;5033901;28;20214;-66
2024/03/18 01:13:47;;;;;;;12.17;9.37;;;10.50;99.90;;;;;;5033702;28;20182;-66
2024/03/18 01:16:21;;;;;;;10.87;9.70;;;10.40;99.90;;;;;;5035178;28;20432;-66
2024/03/18 01:18:48;;;;;;;10.90;9.23;;;10.40;99.90;;;;;;5033400;28;20425;-66
2024/03/18 01:21:14;;;;;;;10.63;9.00;;;10.40;99.90;;;;;;5034637;28;20502;-67
2024/03/18 01:23:40;;;;;;;12.57;9.83;;;10.40;99.90;;;;;;5034901;28;20464;-68
2024/03/18 01:26:07;;;;;;;12.53;8.60;;;10.40;99.90;;;;;;5033476;28;20837;-67
2024/03/18 01:28:34;;;;;;;11.67;9.40;;;10.40;99.90;;;;;;5034753;28;20193;-67
2024/03/18 01:31:03;;;;;;;11.30;8.77;;;10.30;99.90;;;;;;5032965;28;20476;-67
2024/03/18 01:33:30;;;;;;;10.37;9.00;;;10.30;99.90;;;;;;5034637;28;20869;-66
2024/03/18 01:35:56;;;;;;;10.47;9.13;;;10.30;99.90;;;;;;5033233;28;20540;-67
2024/03/18 01:38:22;;;;;;;12.30;10.20;;;10.20;99.90;;;;;;5031367;28;20433;-66
2024/03/18 01:40:48;;;;;;;11.03;8.47;;;10.20;99.90;;;;;;5033179;28;20487;-66
2024/03/18 01:43:14;;;;;;;11.27;9.53;;;10.20;99.90;;;;;;5034913;28;20193;-67
2024/03/18 01:45:43;;;;;;;11.63;9.37;;;10.20;99.90;;;;;;5034140;28;20243;-66
2024/03/18 01:48:08;;;;;;;15.10;10.40;;;10.20;99.90;;;;;;5032707;28;20203;-67
2024/03/18 01:50:35;;;;;;;12.90;10.70;;;10.20;99.90;;;;;;5033847;28;20478;-66
2024/03/18 01:53:00;;;;;;;12.67;10.40;;;10.10;99.90;;;;;;5033416;28;20633;-66
2024/03/18 01:55:26;;;;;;;11.73;8.73;;;10.00;99.90;;;;;;5033245;28;20444;-67
2024/03/18 01:57:52;;;;;;;13.30;9.83;;;10.00;99.90;;;;;;5033054;28;20642;-67
2024/03/18 02:00:32;;;;;;;14.70;10.30;;;10.00;99.90;;;;;;5033453;28;20464;-66
2024/03/18 02:03:00;;;;;;;13.50;10.10;;;10.00;99.90;;;;;;5032712;28;20189;-66
2024/03/18 02:05:26;;;;;;;13.17;9.70;;;10.10;99.90;;;;;;5034714;28;21033;-66
2024/03/18 02:07:51;;;;;;;13.70;10.47;;;10.10;99.90;;;;;;5032067;28;20535;-67
2024/03/18 02:10:17;;;;;;;10.70;8.67;;;10.10;99.90;;;;;;5033288;28;20564;-66
2024/03/18 02:12:43;;;;;;;12.20;9.87;;;10.00;99.90;;;;;;5034073;28;20549;-66
2024/03/18 02:15:09;;;;;;;15.27;9.70;;;10.00;99.90;;;;;;5033229;28;20252;-66
2024/03/18 02:17:34;;;;;;;11.97;9.23;;;10.00;99.90;;;;;;5034335;28;20422;-66
2024/03/18 02:20:00;;;;;;;12.37;9.47;;;10.00;99.90;;;;;;5031511;28;20194;-65
2024/03/18 02:22:26;;;;;;;10.17;8.53;;;9.90;99.90;;;;;;5033775;28;20209;-65
2024/03/18 02:24:51;;;;;;;10.00;8.43;;;9.90;99.90;;;;;;5033185;28;20320;-66
2024/03/18 02:27:17;;;;;;;13.27;9.70;;;9.90;99.90;;;;;;5032576;28;20832;-66
2024/03/18 02:29:43;;;;;;;11.30;9.63;;;10.00;99.90;;;;;;5033738;28;20181;-65
2024/03/18 02:32:10;;;;;;;10.53;9.10;;;10.00;99.90;;;;;;5031976;28;20432;-65
2024/03/18 02:34:36;;;;;;;11.37;8.20;;;10.00;99.90;;;;;;5033887;28;20182;-67
2024/03/18 02:37:02;;;;;;;10.57;8.60;;;10.00;99.90;;;;;;5031766;28;20768;-67
2024/03/18 02:39:29;;;;;;;10.93;8.63;;;10.00;99.90;;;;;;5029928;28;20429;-66
2024/03/18 02:41:55;;;;;;;11.40;8.80;;;10.10;99.90;;;;;;5032644;28;20416;-66
2024/03/18 02:44:21;;;;;;;10.30;8.23;;;10.20;99.90;;;;;;5032438;28;20452;-65
2024/03/18 02:46:48;;;;;;;10.00;8.20;;;10.20;99.90;;;;;;5032142;28;20444;-65
2024/03/18 02:49:14;;;;;;;9.83;8.00;;;10.30;99.90;;;;;;5031748;28;20463;-65
2024/03/18 02:51:40;;;;;;;8.70;7.43;;;10.30;99.90;;;;;;5032669;28;20486;-66
2024/03/18 02:54:07;;;;;;;7.97;6.77;;;10.30;99.90;;;;;;5033126;28;20516;-66
2024/03/18 02:56:32;;;;;;;8.53;7.20;;;10.30;99.90;;;;;;5032009;28;20441;-65
2024/03/18 02:58:58;;;;;;;7.33;6.53;;;10.30;99.90;;;;;;5032600;28;20989;-67
2024/03/18 03:01:25;;;;;;;9.10;7.70;;;10.40;99.90;;;;;;5031949;28;20197;-67
2024/03/18 03:03:52;;;;;;;7.57;6.27;;;10.30;99.90;;;;;;5032655;28;20433;-66
2024/03/18 03:06:21;;;;;;;8.77;7.80;;;10.30;99.90;;;;;;5030632;28;20429;-66
2024/03/18 03:08:47;;;;;;;8.93;6.90;;;10.40;99.90;;;;;;5031512;28;20422;-66
2024/03/18 03:11:13;;;;;;;8.17;6.70;;;10.40;99.90;;;;;;5030767;28;20545;-66
2024/03/18 03:13:39;;;;;;;8.20;7.07;;;10.40;99.90;;;;;;5032361;28;20436;-66
2024/03/18 03:16:12;;;;;;;7.83;6.80;;;10.40;99.90;;;;;;5032069;28;20432;-67
2024/03/18 03:18:38;;;;;;;7.03;6.20;;;10.50;99.90;;;;;;5031702;28;20433;-65
2024/03/18 03:21:07;;;;;;;7.10;6.20;;;10.40;99.90;;;;;;5031306;28;20429;-67
2024/03/18 03:23:34;;;;;;;7.60;6.63;;;10.50;99.90;;;;;;5031374;28;20545;-67
2024/03/18 03:26:00;;;;;;;7.27;6.00;;;10.40;99.90;;;;;;5032037;28;20448;-66
2024/03/18 03:28:26;;;;;;;7.07;6.37;;;10.40;99.90;;;;;;5031479;28;20444;-66
2024/03/18 03:31:06;;;;;;;6.33;5.73;;;10.40;99.90;;;;;;5032040;28;20228;-67
2024/03/18 03:33:33;;;;;;;6.80;5.70;;;10.30;99.90;;;;;;5032776;28;20530;-66
2024/03/18 03:36:00;;;;;;;5.97;5.03;;;10.40;99.90;;;;;;5031731;28;20977;-66
2024/03/18 03:38:25;;;;;;;7.33;6.03;;;10.40;99.90;;;;;;5030135;28;20446;-66
2024/03/18 03:40:52;;;;;;;6.67;5.97;;;10.40;99.90;;;;;;5031621;28;20512;-67
2024/03/18 03:43:18;;;;;;;6.60;5.93;;;10.40;99.90;;;;;;5030426;28;20292;-65
2024/03/18 03:45:55;;;;;;;6.60;5.90;;;10.50;99.90;;;;;;5032384;28;20432;-65
2024/03/18 03:48:22;;;;;;;6.20;5.60;;;10.40;99.90;;;;;;5030631;28;20452;-66
2024/03/18 03:50:50;;;;;;;6.90;6.13;;;10.40;99.90;;;;;;5030860;28;20531;-67
2024/03/18 03:53:17;;;;;;;6.27;5.47;;;10.40;99.90;;;;;;5030511;28;20431;-66
2024/03/18 03:55:43;;;;;;;6.60;5.90;;;10.50;99.90;;;;;;5031396;28;20439;-66
2024/03/18 03:58:09;;;;;;;6.87;5.67;;;10.50;99.90;;;;;;5030495;28;20443;-66
2024/03/18 04:00:35;;;;;;;5.73;5.13;;;10.40;99.90;;;;;;5031284;28;20425;-65
2024/03/18 04:03:01;;;;;;;8.03;6.10;;;10.50;99.90;;;;;;5031938;28;20441;-66
2024/03/18 04:05:27;;;;;;;6.90;5.60;;;10.50;99.90;;;;;;5031165;28;20185;-66
2024/03/18 04:07:52;;;;;;;6.83;6.13;;;10.50;99.90;;;;;;5030799;28;20260;-67
2024/03/18 04:10:18;;;;;;;6.13;5.50;;;10.40;99.90;;;;;;5030495;28;20580;-67
2024/03/18 04:12:44;;;;;;;6.53;5.60;;;10.50;99.90;;;;;;5031715;28;20181;-65
2024/03/18 04:15:11;;;;;;;7.53;5.93;;;10.40;99.90;;;;;;5031518;28;20194;-66
2024/03/18 04:17:38;;;;;;;7.50;6.43;;;10.50;99.90;;;;;;5030838;28;20433;-66
2024/03/18 04:20:18;;;;;;;6.00;5.37;;;10.50;99.90;;;;;;5030797;28;20432;-64
2024/03/18 04:22:48;;;;;;;6.47;5.77;;;10.50;99.90;;;;;;5031321;28;21173;-66
2024/03/18 04:25:14;;;;;;;6.93;6.30;;;10.50;99.90;;;;;;5030288;28;20436;-65
2024/03/18 04:27:43;;;;;;;7.03;6.30;;;10.60;99.90;;;;;;5031049;28;20437;-67
2024/03/18 04:30:14;;;;;;;6.20;5.60;;;10.60;99.90;;;;;;5031306;28;20504;-65
2024/03/18 04:32:45;;;;;;;7.13;5.60;;;10.60;99.90;;;;;;5034562;28;20424;-65
2024/03/18 04:35:11;;;;;;;6.97;6.27;;;10.60;99.90;;;;;;5066539;28;20787;-66
2024/03/18 04:38:02;;;;;;;8.20;6.13;;;10.60;99.90;;;;;;5033029;28;20961;-66
2024/03/18 04:40:27;;;;;;;6.47;5.60;;;10.50;99.90;;;;;;5032752;28;20823;-65
2024/03/18 04:42:54;;;;;;;8.23;6.00;;;10.50;99.90;;;;;;5033702;28;20461;-66
2024/03/18 04:45:21;;;;;;;8.00;5.97;;;10.50;99.90;;;;;;5034378;28;20432;-66
2024/03/18 04:47:50;;;;;;;7.40;6.60;;;10.50;99.90;;;;;;5034481;28;20451;-67
2024/03/18 04:50:18;;;;;;;6.80;6.07;;;10.50;99.90;;;;;;5034225;28;20480;-67
2024/03/18 04:52:44;;;;;;;5.93;5.23;;;10.50;99.90;;;;;;5034642;28;20451;-67
2024/03/18 04:55:11;;;;;;;8.37;6.83;;;10.50;99.90;;;;;;5035381;28;20927;-66
2024/03/18 04:57:37;;;;;;;8.10;6.20;;;10.50;99.90;;;;;;5034197;28;20190;-65
2024/03/18 05:00:09;;;;;;;7.40;6.47;;;10.60;99.90;;;;;;5033449;28;20477;-65
2024/03/18 05:02:40;;;;;;;6.87;5.83;;;10.60;99.90;;;;;;5033391;28;20440;-65
2024/03/18 05:05:07;;;;;;;8.67;6.83;;;10.60;99.90;;;;;;5034338;28;20447;-65
2024/03/18 05:07:33;;;;;;;7.30;6.30;;;10.50;99.90;;;;;;5033059;28;20460;-66
2024/03/18 05:09:58;;;;;;;9.23;6.63;;;10.50;99.90;;;;;;5033658;28;20923;-65
2024/03/18 05:12:24;;;;;;;8.00;6.57;;;10.40;99.90;;;;;;5033442;28;20471;-66
2024/03/18 05:14:53;;;;;;;8.30;6.70;;;10.40;99.90;;;;;;5033936;28;20240;-65
2024/03/18 05:17:19;;;;;;;10.20;7.00;;;10.40;99.90;;;;;;5033104;28;20429;-66
2024/03/18 05:19:45;;;;;;;7.73;6.93;;;10.40;99.90;;;;;;5034033;28;20490;-65
2024/03/18 05:22:13;;;;;;;8.07;7.10;;;10.50;99.90;;;;;;5034123;28;20911;-65
2024/03/18 05:24:43;;;;;;;8.57;6.83;;;10.50;99.90;;;;;;5033436;28;20429;-65
2024/03/18 05:27:19;;;;;;;7.63;6.80;;;10.50;99.90;;;;;;5033910;28;20433;-65
2024/03/18 05:29:46;;;;;;;7.33;6.60;;;10.50;99.90;;;;;;5033392;28;20427;-66
2024/03/18 05:32:14;;;;;;;8.67;7.40;;;10.50;99.90;;;;;;5033616;28;20812;-65
2024/03/18 05:34:41;;;;;;;9.43;7.30;;;10.50;99.90;;;;;;5048604;28;20466;-65
2024/03/18 05:37:09;;;;;;;8.60;7.10;;;10.50;99.90;;;;;;5033593;28;20993;-66
2024/03/18 05:39:38;;;;;;;9.30;8.07;;;10.50;99.90;;;;;;5029715;28;21147;-65
2024/03/18 05:42:05;;;;;;;12.50;9.37;;;10.50;99.90;;;;;;5032144;28;20931;-65
2024/03/18 05:44:31;;;;;;;10.27;8.20;;;10.60;99.90;;;;;;5033421;28;20429;-66
2024/03/18 05:46:58;;;;;;;10.53;7.90;;;10.60;99.90;;;;;;5033824;28;20527;-65
2024/03/18 05:49:23;;;;;;;10.20;7.93;;;10.60;99.90;;;;;;5032242;28;20435;-65
2024/03/18 05:51:51;;;;;;;10.77;8.57;;;10.60;99.90;;;;;;5032651;28;20485;-65
2024/03/18 05:54:16;;;;;;;10.80;9.40;;;10.60;99.90;;;;;;5032793;28;20597;-66
2024/03/18 05:56:43;;;;;;;10.60;7.97;;;10.60;99.90;;;;;;5032794;28;20443;-66
2024/03/18 05:59:12;;;;;;;9.07;8.10;;;10.70;99.90;;;;;;5031430;28;20190;-66
2024/03/18 06:01:38;;;;;;;9.73;8.70;;;10.70;99.90;;;;;;5032414;28;20429;-66
2024/03/18 06:04:04;;;;;;;11.37;7.73;;;10.70;99.90;;;;;;5032455;28;20444;-66
2024/03/18 06:06:30;;;;;;;10.00;8.70;;;10.70;99.90;;;;;;5033404;28;20437;-66
2024/03/18 06:08:57;;;;;;;9.40;8.10;;;10.80;99.90;;;;;;5032651;28;20432;-65
2024/03/18 06:11:23;;;;;;;11.90;8.10;;;10.80;99.90;;;;;;5032273;28;20468;-65
2024/03/18 06:13:48;;;;;;;11.10;9.13;;;10.80;99.90;;;;;;5032942;28;20494;-66
2024/03/18 06:16:14;;;;;;;10.10;8.50;;;10.80;99.90;;;;;;5031939;28;20434;-66
2024/03/18 06:18:42;;;;;;;10.50;8.90;;;10.70;99.90;;;;;;5032037;28;20547;-65
2024/03/18 06:21:16;;;;;;;10.73;9.10;;;10.70;99.90;;;;;;5032497;28;20440;-66
2024/03/18 06:23:51;;;;;;;11.37;8.70;;;10.70;99.90;;;;;;5031928;28;20531;-65
2024/03/18 06:26:20;;;;;;;11.30;9.00;;;10.70;99.90;;;;;;5032118;28;20432;-66
2024/03/18 06:28:46;;;;;;;10.27;8.23;;;10.80;99.90;;;;;;5030358;28;20425;-64
2024/03/18 06:31:12;;;;;;;13.20;10.13;;;10.80;99.90;;;;;;5032473;28;20519;-65
2024/03/18 06:33:38;;;;;;;14.17;9.10;;;10.80;99.90;;;;;;5032235;28;20432;-66
2024/03/18 06:36:11;;;;;;;12.03;9.63;;;10.80;99.90;;;;;;5031561;28;20428;-66
2024/03/18 06:38:40;;;;;;;12.40;9.40;;;10.80;99.90;;;;;;5030006;28;21217;-65
2024/03/18 06:41:09;;;;;;;12.90;10.70;;;10.80;99.90;;;;;;5031742;28;20452;-66
2024/03/18 06:43:36;;;;;;;11.90;9.57;;;10.90;99.90;;;;;;5031007;28;20433;-66
2024/03/18 06:46:01;;;;;;;12.53;10.03;;;10.90;99.90;;;;;;5032200;28;20452;-66
2024/03/18 06:48:28;;;;;;;11.67;8.60;;;10.90;99.90;;;;;;5032275;28;20432;-66
2024/03/18 06:50:53;;;;;;;13.43;10.07;;;10.90;99.90;;;;;;5031082;28;20210;-65
2024/03/18 06:53:19;;;;;;;14.03;11.13;;;10.90;99.90;;;;;;5030960;28;20814;-66
2024/03/18 06:55:45;;;;;;;11.97;9.80;;;10.90;99.90;;;;;;5030725;28;20949;-66
2024/03/18 06:58:11;;;;;;;13.90;9.33;;;10.90;99.90;;;;;;5032018;28;21049;-66
2024/03/18 07:00:37;;;;;;;11.27;9.17;;;11.00;99.90;;;;;;5031814;28;20592;-66
2024/03/18 07:03:03;;;;;;;18.17;10.50;;;10.90;99.90;;;;;;5032105;28;20421;-66
2024/03/18 07:05:30;;;;;;;13.10;10.07;;;10.90;99.90;;;;;;5033708;28;20436;-66
2024/03/18 07:07:56;;;;;;;13.97;10.17;;;10.90;99.90;;;;;;5030961;28;20428;-66
2024/03/18 07:10:22;;;;;;;11.70;9.67;;;11.00;99.90;;;;;;5032224;28;20842;-66
2024/03/18 07:12:47;;;;;;;13.13;10.40;;;11.00;99.90;;;;;;5032373;28;20235;-65
2024/03/18 07:15:16;;;;;;;13.80;11.33;;;11.00;99.90;;;;;;5032437;28;21067;-66
2024/03/18 07:17:45;;;;;;;16.17;11.40;;;10.90;99.90;;;;;;5032719;28;20186;-65
2024/03/18 07:20:12;;;;;;;13.97;11.10;;;11.00;99.90;;;;;;5032025;28;20528;-66
2024/03/18 07:22:41;;;;;;;13.77;11.50;;;11.00;99.90;;;;;;5032820;28;20455;-66
2024/03/18 07:25:16;;;;;;;15.33;11.60;;;11.10;99.90;;;;;;5031784;28;21107;-66
2024/03/18 07:27:45;;;;;;;16.00;10.30;;;11.20;99.90;;;;;;5030549;28;20428;-67
2024/03/18 07:30:13;;;;;;;13.13;10.37;;;11.20;99.90;;;;;;5032033;28;20469;-65
2024/03/18 07:32:42;;;;;;;18.27;11.90;;;11.20;99.90;;;;;;5032844;28;20426;-65
2024/03/18 07:35:09;;;;;;;12.97;11.27;;;11.20;99.90;;;;;;5031823;28;20497;-66
2024/03/18 07:37:35;;;;;;;16.43;11.83;;;11.30;99.90;;;;;;5031020;28;20416;-66
2024/03/18 07:40:01;;;;;;;15.77;11.97;;;11.30;99.90;;;;;;5029822;28;20836;-65
2024/03/18 07:42:26;;;;;;;17.50;13.10;;;11.40;99.90;;;;;;5032271;28;20432;-66
2024/03/18 07:44:56;;;;;;;13.70;10.53;;;11.40;99.90;;;;;;5031226;28;20174;-67
2024/03/18 07:47:23;;;;;;;15.80;11.00;;;11.50;99.90;;;;;;5031260;28;20313;-66
2024/03/18 07:49:49;;;;;;;16.27;11.00;;;11.50;99.90;;;;;;5030661;28;20428;-65
2024/03/18 07:52:15;;;;;;;16.03;10.60;;;11.60;99.90;;;;;;5030861;28;20426;-67
2024/03/18 07:54:42;;;;;;;15.27;11.50;;;11.60;99.90;;;;;;5033281;28;20768;-65
2024/03/18 07:57:08;;;;;;;14.80;11.00;;;11.60;99.90;;;;;;5031396;28;20182;-66
2024/03/18 07:59:33;;;;;;;13.73;10.90;;;11.70;99.90;;;;;;5030609;28;20439;-65
2024/03/18 08:01:59;;;;;;;14.07;11.57;;;11.70;99.90;;;;;;5030912;28;20448;-65
2024/03/18 08:04:26;;;;;;;18.57;11.63;;;11.70;99.90;;;;;;5032141;28;20554;-65
2024/03/18 08:06:52;;;;;;;13.40;11.27;;;11.60;99.90;;;;;;5035173;28;20652;-66
2024/03/18 08:09:18;;;;;;;14.80;11.10;;;11.70;99.90;;;;;;5035554;28;20516;-66
2024/03/18 08:11:46;;;;;;;14.27;11.10;;;11.70;99.90;;;;;;5035767;28;20486;-65
2024/03/18 08:14:12;;;;;;;15.70;11.57;;;11.70;99.90;;;;;;5035401;28;20429;-66
2024/03/18 08:16:39;;;;;;;14.67;11.37;;;11.80;99.90;;;;;;5036293;28;20436;-66
2024/03/18 08:19:04;;;;;;;14.60;11.10;;;11.80;99.90;;;;;;5034412;28;20443;-66
2024/03/18 08:21:30;;;;;;;15.07;12.00;;;11.90;99.90;;;;;;5035485;28;20640;-66
2024/03/18 08:24:00;;;;;;;15.80;11.63;;;12.00;99.90;;;;;;5035457;28;20265;-65
2024/03/18 08:26:28;;;;;;;15.40;11.63;;;12.10;99.90;;;;;;5035211;28;21168;-66
2024/03/18 08:28:53;;;;;;;14.83;11.57;;;12.10;99.90;;;;;;5033892;28;20576;-66
2024/03/18 08:31:19;;;;;;;15.93;11.60;;;12.10;99.90;;;;;;5034958;28;20506;-65
2024/03/18 08:33:45;;;;;;;12.67;11.13;;;12.10;99.90;;;;;;5036097;28;20726;-66
2024/03/18 08:36:12;;;;;;;16.13;10.57;;;12.20;99.90;;;;;;5034242;28;20190;-66
2024/03/18 08:38:38;;;;;;;14.00;10.83;;;12.20;99.90;;;;;;5033156;28;20647;-66
2024/03/18 08:41:04;;;;;;;12.60;9.93;;;12.30;99.90;;;;;;5034354;28;20432;-65
2024/03/18 08:43:30;;;;;;;12.60;9.90;;;12.40;99.90;;;;;;5036194;28;20432;-65
2024/03/18 08:45:57;;;;;;;13.00;10.20;;;12.40;99.90;;;;;;5034597;28;20964;-66
2024/03/18 08:48:24;;;;;;;13.80;11.53;;;12.50;99.90;;;;;;5034929;28;20935;-67
2024/03/18 08:50:50;;;;;;;14.80;10.43;;;12.50;99.90;;;;;;5035838;28;20969;-66
2024/03/18 08:53:16;;;;;;;14.20;11.10;;;12.60;99.90;;;;;;5033866;28;20436;-67
2024/03/18 08:55:45;;;;;;;14.60;10.40;;;12.60;99.90;;;;;;5035688;28;20535;-66
2024/03/18 08:58:11;;;;;;;13.57;11.10;;;12.70;99.90;;;;;;5033604;28;20437;-66
2024/03/18 09:00:37;;;;;;;14.80;11.77;;;12.80;99.90;;;;;;5035246;28;20428;-65
2024/03/18 09:03:03;;;;;;;14.93;10.93;;;12.80;99.90;;;;;;5035198;28;20443;-67
2024/03/18 09:05:32;;;;;;;13.63;11.70;;;12.80;99.90;;;;;;5035124;28;20566;-66
2024/03/18 09:07:59;;;;;;;14.83;11.17;;;12.80;99.90;;;;;;5034462;28;20448;-66
2024/03/18 09:10:25;;;;;;;17.03;11.97;;;12.80;99.90;;;;;;5034262;28;20461;-66
2024/03/18 09:12:51;;;;;;;12.80;10.60;;;12.80;99.90;;;;;;5034993;28;20491;-66
2024/03/18 09:15:17;;;;;;;14.33;10.87;;;12.70;99.90;;;;;;5033684;28;21002;-66
2024/03/18 09:17:45;;;;;;;14.37;11.80;;;12.70;99.90;;;;;;5033025;28;20209;-67
2024/03/18 09:20:16;;;;;;;15.70;11.87;;;12.70;99.90;;;;;;5033519;28;20686;-66
2024/03/18 09:22:47;;;;;;;14.60;11.97;;;12.70;99.90;;;;;;5034428;28;20425;-66
2024/03/18 09:25:13;;;;;;;13.10;11.33;;;12.70;99.90;;;;;;5033838;28;20457;-65
2024/03/18 09:27:39;;;;;;;13.53;12.10;;;12.70;99.90;;;;;;5034972;28;20524;-65
2024/03/18 09:30:06;;;;;;;15.53;12.60;;;12.70;99.90;;;;;;5034286;28;20232;-66
2024/03/18 09:32:32;;;;;;;16.63;13.30;;;12.70;99.90;;;;;;5032830;28;20197;-66
2024/03/18 09:34:58;;;;;;;17.47;12.93;;;12.70;99.90;;;;;;5034863;28;21103;-65
2024/03/18 09:37:27;;;;;;;15.70;13.17;;;12.60;99.90;;;;;;5033354;28;20436;-66
2024/03/18 09:39:52;;;;;;;13.93;12.03;;;12.60;99.90;;;;;;5032077;28;20436;-67
2024/03/18 09:42:18;;;;;;;18.97;14.37;;;12.60;99.90;;;;;;5031697;28;21287;-65
2024/03/18 09:44:45;;;;;;;16.20;11.93;;;12.70;99.90;;;;;;5034938;28;20182;-66
2024/03/18 09:47:24;;;;;;;17.33;13.20;;;12.80;99.90;;;;;;5034440;28;20212;-66
2024/03/18 09:49:52;;;;;;;14.50;12.05;;;13.00;99.90;;;;;;5033276;28;20428;-66
2024/03/18 09:52:19;;;;;;;14.93;11.43;;;13.00;99.90;;;;;;5032779;28;20448;-66
2024/03/18 09:54:49;;;;;;;13.90;11.10;;;13.20;99.90;;;;;;5034742;28;20425;-66
2024/03/18 09:57:18;;;;;;;14.73;10.90;;;13.30;99.90;;;;;;5032871;28;20447;-66
2024/03/18 09:59:44;;;;;;;14.70;10.50;;;13.50;99.90;;;;;;5034086;28;20440;-66
2024/03/18 10:02:15;;;;;;;10.93;9.83;;;13.50;99.90;;;;;;5033332;28;20442;-67
2024/03/18 10:04:41;;;;;;;14.10;10.43;;;13.60;99.90;;;;;;5034417;28;20460;-66
2024/03/18 10:07:17;;;;;;;10.10;8.60;;;13.70;99.90;;;;;;5033065;28;20467;-66
2024/03/18 10:09:48;;;;;;;11.97;10.10;;;13.70;99.90;;;;;;5034987;28;20443;-66
2024/03/18 10:12:15;;;;;;;12.47;8.57;;;13.70;99.90;;;;;;5032597;28;20535;-66
2024/03/18 10:14:42;;;;;;;11.00;7.73;;;13.70;99.90;;;;;;5034653;28;20436;-66
2024/03/18 10:17:15;;;;;;;11.80;10.10;;;13.70;99.90;;;;;;5032932;28;20458;-66
2024/03/18 10:19:50;;;;;;;9.27;7.10;;;13.70;99.90;;;;;;5034607;28;20486;-67
2024/03/18 10:22:16;;;;;;;9.10;7.20;;;13.70;99.90;;;;;;5033039;28;20432;-67
2024/03/18 10:24:45;;;;;;;10.57;8.20;;;13.60;99.90;;;;;;5033438;28;20986;-66
2024/03/18 10:27:12;;;;;;;7.63;6.87;;;13.60;99.90;;;;;;5034323;28;20209;-65
2024/03/18 10:29:40;;;;;;;9.50;7.70;;;13.60;99.90;;;;;;5032721;28;20428;-65
2024/03/18 10:32:27;;;;;;;8.40;7.60;;;13.60;99.90;;;;;;5032834;28;20572;-66
2024/03/18 10:35:01;;;;;;;9.97;7.67;;;13.70;99.90;;;;;;5033469;28;20425;-67
2024/03/18 10:37:27;;;;;;;12.37;8.20;;;13.70;99.90;;;;;;5032985;28;20437;-66
2024/03/18 10:39:59;;;;;;;12.77;8.77;;;13.70;99.90;;;;;;5031668;28;20425;-67
2024/03/18 10:42:32;;;;;;;11.30;8.40;;;13.60;99.90;;;;;;5032407;28;20429;-65
2024/03/18 10:45:10;;;;;;;9.77;8.40;;;13.60;99.90;;;;;;5032621;28;21065;-67
2024/03/18 10:47:36;;;;;;;11.27;8.47;;;13.60;99.90;;;;;;5032645;28;20437;-66
2024/03/18 10:50:03;;;;;;;11.67;9.03;;;13.50;99.90;;;;;;5032676;28;20443;-67
2024/03/18 10:52:30;;;;;;;15.00;9.37;;;13.60;99.90;;;;;;5032468;28;21037;-66
2024/03/18 10:54:57;;;;;;;12.13;9.27;;;13.60;99.90;;;;;;5033179;28;20508;-65
2024/03/18 10:57:25;;;;;;;10.73;9.63;;;13.60;99.90;;;;;;5031067;28;20472;-67
2024/03/18 10:59:52;;;;;;;10.63;9.53;;;13.60;99.90;;;;;;5033482;28;20432;-66
2024/03/18 11:02:27;;;;;;;12.83;10.00;;;13.70;99.90;;;;;;5031631;28;20424;-66
2024/03/18 11:04:57;;;;;;;14.50;10.57;;;13.80;99.90;;;;;;5032782;28;20538;-67
2024/03/18 11:07:31;;;;;;;11.93;9.17;;;13.90;99.90;;;;;;5031160;28;20475;-67
2024/03/18 11:10:11;;;;;;;13.67;10.73;;;13.90;99.90;;;;;;5032896;28;20448;-66
2024/03/18 11:12:37;;;;;;;11.23;10.10;;;14.00;99.90;;;;;;5031193;28;20493;-66
2024/03/18 11:15:09;;;;;;;13.83;10.17;;;14.00;99.90;;;;;;5031922;28;20563;-67
2024/03/18 11:18:07;;;;;;;11.07;9.90;;;14.10;99.90;;;;;;5031873;28;20194;-67
2024/03/18 11:20:48;;;;;;;11.70;9.93;;;14.20;99.90;;;;;;5031599;28;20442;-66
2024/03/18 11:23:21;;;;;;;13.67;11.00;;;14.20;99.90;;;;;;5064294;28;20514;-66
2024/03/18 11:25:58;;;;;;;13.67;9.80;;;14.30;99.90;;;;;;5032593;28;20436;-67
2024/03/18 11:28:42;;;;;;;13.30;10.47;;;14.30;99.90;;;;;;5031290;28;20468;-68
2024/03/18 11:31:15;;;;;;;13.83;10.47;;;14.50;99.90;;;;;;5031376;28;20464;-67
2024/03/18 11:33:44;;;;;;;11.20;9.57;;;14.60;99.90;;;;;;5032049;28;20432;-67
2024/03/18 11:36:15;;;;;;;11.33;9.73;;;14.80;99.90;;;;;;5016470;28;20484;-66
2024/03/18 11:38:41;;;;;;;10.10;9.00;;;14.90;99.90;;;;;;5031057;28;20519;-67
2024/03/18 11:41:07;;;;;;;11.53;8.97;;;15.00;99.90;;;;;;5031387;28;21528;-65
2024/03/18 11:43:34;;;;;;;10.90;9.20;;;15.00;99.90;;;;;;5031907;28;20520;-66
2024/03/18 11:46:00;;;;;;;10.23;8.50;;;15.00;99.90;;;;;;5032430;28;20525;-67
2024/03/18 11:48:29;;;;;;;11.47;9.30;;;14.90;99.90;;;;;;5030509;28;20456;-67
2024/03/18 11:50:55;;;;;;;12.13;9.30;;;14.80;99.90;;;;;;5031219;28;20210;-66
2024/03/18 11:53:21;;;;;;;11.13;8.20;;;14.80;99.90;;;;;;5032736;28;20437;-67
2024/03/18 11:55:53;;;;;;;8.30;7.50;;;14.70;99.90;;;;;;5032290;28;21167;-67
2024/03/18 11:58:20;;;;;;;8.70;6.70;;;14.60;99.90;;;;;;5031047;28;20178;-67
2024/03/18 12:00:47;;;;;;;10.23;7.20;;;14.50;99.90;;;;;;5031374;28;20421;-67
2024/03/18 12:03:14;;;;;;;6.90;6.20;;;14.40;99.90;;;;;;5031714;28;20434;-67
2024/03/18 12:05:47;;;;;;;7.53;5.63;;;14.40;99.90;;;;;;5032080;28;20503;-66
2024/03/18 12:08:24;;;;;;;6.17;5.53;;;14.30;99.90;;;;;;5031121;28;20421;-67
2024/03/18 12:10:55;;;;;;;6.20;4.93;;;14.30;99.90;;;;;;5030443;28;20801;-66
2024/03/18 12:13:27;;;;;;;5.73;4.83;;;14.20;99.90;;;;;;5032063;28;20478;-66
2024/03/18 12:15:54;;;;;;;6.20;4.40;;;14.20;99.90;;;;;;5031300;28;21550;-67
2024/03/18 12:18:20;;;;;;;7.00;5.57;;;14.30;99.90;;;;;;5031865;28;20498;-67
2024/03/18 12:20:53;;;;;;;5.83;5.23;;;14.30;99.90;;;;;;5031787;28;20428;-67
2024/03/18 12:28:50;;;;;;;6.63;5.30;;;14.50;99.90;;;;;;5030857;28;20427;-67
2024/03/18 12:31:19;;;;;;;7.27;4.67;;;14.50;99.90;;;;;;5031375;28;20508;-66
2024/03/18 12:33:46;;;;;;;8.97;3.80;;;14.50;99.90;;;;;;5031150;28;20428;-66
2024/03/18 12:36:17;;;;;;;4.37;3.97;;;14.50;99.90;;;;;;5032004;28;20432;-67
2024/03/18 12:38:49;;;;;;;8.70;3.80;;;14.50;99.90;;;;;;5028870;28;20432;-67
2024/03/18 12:41:19;;;;;;;4.97;3.70;;;14.40;99.90;;;;;;5031146;28;20831;-67
2024/03/18 12:43:46;;;;;;;5.40;3.43;;;14.40;99.90;;;;;;5031374;28;20869;-66
2024/03/18 12:46:17;;;;;;;3.77;3.03;;;14.40;99.90;;;;;;5031570;28;20442;-66